Kewanee, IL (61443)

1:39 PM CDT on June 28, 2017 (GMT -0500)
Rockwell St. | | Change Station

Elev 858 ft 41.24 °N, 89.93 °W | Updated 8 seconds ago

Mostly Cloudy
Mostly Cloudy
74.5 °F
Feels Like 75 °F
N
8.3
Wind Variable Wind from SSW
Gusts 326.3 mph

Today
High -- | Low -- °F
--% Chance of Precip.
Yesterday
High -- | Low -- °F
Precip. -- in
Pressure 29.79 in
Visibility 10.0 miles
Clouds Few 7500 ft
Scattered Clouds 9000 ft
Mostly Cloudy 12000 ft
Heat Index 75 °F
Dew Point 69 °F
Humidity 82%
Rainfall 16.00 in
Snow Depth Not available.
5:29 AM 8:36 PM
Waxing Crescent, 27% visible
METAR KMLI 281752Z 20012G23KT 10SM FEW075 SCT090 BKN120 24/19 A2980 RMK AO2 PK WND 20026/1714 SLP088 60160 T02440189 10244 20172 55025
Pressure 29.79 in
Visibility 10.0 miles
Clouds Few 7500 ft
Scattered Clouds 9000 ft
Mostly Cloudy 12000 ft
Heat Index 75 °F
Dew Point 69 °F
Humidity 82%
Rainfall 16.00 in
Snow Depth Not available.
5:29 AM 8:36 PM
Waxing Crescent, 27% visible
METAR KMLI 281752Z 20012G23KT 10SM FEW075 SCT090 BKN120 24/19 A2980 RMK AO2 PK WND 20026/1714 SLP088 60160 T02440189 10244 20172 55025

Get Severe Weather Alerts

Thanks for signing up!

Be on the lookout for a verification email in your inbox.

You'll start receiving the daily forecast at 6 AM.

×

10-Day Weather Forecast

Almanac

Astronomy

Jun. 28, 2017 Rise Set
Actual Time
Civil Twilight
Nautical Twilight
Astronomical Twilight
Moon
Length of Visible Light
Length of Day
Tomorrow will be .
, % of the Moon is Illuminated

Today's Extremes

State Highs State Lows

Community

WunderPhotos

Category 6

Welcome to Category 6. This is the collective home for Weather Underground's featured writeups by Dr. Jeff Masters (right), Bob Henson (left), Chris Burt, and other regular contributors.

Nearby

Air Quality

  Air Quality AQ Index Pollutant
Not available.

Snow Depth

Station Depth Elevation

Earthquake Activity

City Distance Mag. Time & Date
Minimum magnitude displayed is 2.5.

Coastal Water Temperatures

Place Temperature

Stations

Nearby Weather Stations

Station Location Temp. Windchill Dew Point Humidity Wind Precip. Elev Updated Type
                   

Watches & Warnings

There are currently no watches in effect.